sensor_id;sensor_type;location;lat;lon;timestamp;pressure;altitude;pressure_sealevel;temperature;humidity
21185;BME280;18176;49.502;11.754;2023-04-08T00:02:19;97047.09;;;11.19;46.19
21185;BME280;18176;49.502;11.754;2023-04-08T00:06:19;97047.91;;;11.08;47.08
21185;BME280;18176;49.502;11.754;2023-04-08T00:10:20;97051.13;;;11.10;47.07
21185;BME280;18176;49.502;11.754;2023-04-08T00:14:23;97046.06;;;10.97;47.32
21185;BME280;18176;49.502;11.754;2023-04-08T00:18:24;97041.91;;;11.01;47.32
21185;BME280;18176;49.502;11.754;2023-04-08T00:22:24;97033.25;;;10.94;47.36
21185;BME280;18176;49.502;11.754;2023-04-08T00:26:24;97051.81;;;10.94;47.73
21185;BME280;18176;49.502;11.754;2023-04-08T00:30:28;97047.19;;;10.89;47.58
21185;BME280;18176;49.502;11.754;2023-04-08T00:34:28;97043.16;;;10.87;47.63
21185;BME280;18176;49.502;11.754;2023-04-08T00:38:28;97023.25;;;10.96;46.89
21185;BME280;18176;49.502;11.754;2023-04-08T00:42:29;97055.16;;;11.36;46.80
21185;BME280;18176;49.502;11.754;2023-04-08T00:46:37;97052.06;;;11.50;46.44
21185;BME280;18176;49.502;11.754;2023-04-08T00:50:38;97050.66;;;11.59;46.08
21185;BME280;18176;49.502;11.754;2023-04-08T00:54:40;97052.63;;;11.52;46.38
21185;BME280;18176;49.502;11.754;2023-04-08T00:58:40;97051.50;;;11.25;46.86
21185;BME280;18176;49.502;11.754;2023-04-08T01:02:51;97068.91;;;11.21;46.57
21185;BME280;18176;49.502;11.754;2023-04-08T01:07:06;97063.50;;;11.16;46.61
21185;BME280;18176;49.502;11.754;2023-04-08T01:11:12;97050.53;;;10.96;45.81
21185;BME280;18176;49.502;11.754;2023-04-08T01:15:13;97036.81;;;10.88;45.60
21185;BME280;18176;49.502;11.754;2023-04-08T01:19:25;97050.75;;;10.83;45.66
21185;BME280;18176;49.502;11.754;2023-04-08T01:23:37;97056.19;;;10.88;45.80
21185;BME280;18176;49.502;11.754;2023-04-08T01:27:42;97057.69;;;10.84;45.55
21185;BME280;18176;49.502;11.754;2023-04-08T01:31:46;97049.38;;;10.81;45.56
21185;BME280;18176;49.502;11.754;2023-04-08T01:35:48;97050.53;;;10.85;45.38
21185;BME280;18176;49.502;11.754;2023-04-08T01:39:53;97022.25;;;10.55;45.81
21185;BME280;18176;49.502;11.754;2023-04-08T01:43:57;97050.53;;;10.96;45.34
21185;BME280;18176;49.502;11.754;2023-04-08T01:48:00;97056.69;;;11.20;44.89
21185;BME280;18176;49.502;11.754;2023-04-08T01:52:01;97032.13;;;11.24;44.40
21185;BME280;18176;49.502;11.754;2023-04-08T01:56:08;97050.44;;;11.49;44.05
21185;BME280;18176;49.502;11.754;2023-04-08T02:00:18;97057.59;;;11.60;43.57
21185;BME280;18176;49.502;11.754;2023-04-08T02:04:20;97060.31;;;11.88;43.24
21185;BME280;18176;49.502;11.754;2023-04-08T02:08:20;97063.34;;;11.80;43.25
21185;BME280;18176;49.502;11.754;2023-04-08T02:12:21;97058.50;;;11.54;43.88
21185;BME280;18176;49.502;11.754;2023-04-08T02:16:33;97062.53;;;10.99;44.90
21185;BME280;18176;49.502;11.754;2023-04-08T02:20:41;97062.91;;;11.37;44.47
21185;BME280;18176;49.502;11.754;2023-04-08T02:24:43;97050.22;;;11.16;44.38
21185;BME280;18176;49.502;11.754;2023-04-08T02:28:46;97056.19;;;10.77;45.51
21185;BME280;18176;49.502;11.754;2023-04-08T02:32:56;97071.09;;;10.59;46.07
21185;BME280;18176;49.502;11.754;2023-04-08T02:36:58;97038.50;;;10.29;46.52
21185;BME280;18176;49.502;11.754;2023-04-08T02:40:58;97059.00;;;10.52;46.32
21185;BME280;18176;49.502;11.754;2023-04-08T02:44:58;97074.53;;;10.48;46.32
21185;BME280;18176;49.502;11.754;2023-04-08T02:49:01;97048.44;;;10.34;46.48
21185;BME280;18176;49.502;11.754;2023-04-08T02:53:02;97044.16;;;10.21;47.08
21185;BME280;18176;49.502;11.754;2023-04-08T02:57:03;96968.06;;;9.69;46.89
21185;BME280;18176;49.502;11.754;2023-04-08T03:01:03;97069.41;;;10.35;47.07
21185;BME280;18176;49.502;11.754;2023-04-08T03:05:08;97068.25;;;10.31;47.25
21185;BME280;18176;49.502;11.754;2023-04-08T03:09:08;97048.13;;;10.12;47.47
21185;BME280;18176;49.502;11.754;2023-04-08T03:13:09;97075.44;;;10.06;47.68
21185;BME280;18176;49.502;11.754;2023-04-08T03:17:09;97029.75;;;9.81;47.91
21185;BME280;18176;49.502;11.754;2023-04-08T03:21:12;97058.25;;;9.97;47.75
21185;BME280;18176;49.502;11.754;2023-04-08T03:25:12;97065.63;;;10.13;47.54
21185;BME280;18176;49.502;11.754;2023-04-08T03:29:13;97072.94;;;10.29;47.60
21185;BME280;18176;49.502;11.754;2023-04-08T03:33:13;97082.19;;;10.38;47.39
21185;BME280;18176;49.502;11.754;2023-04-08T03:37:16;97085.13;;;10.48;47.35
21185;BME280;18176;49.502;11.754;2023-04-08T03:41:16;97080.97;;;10.52;47.16
21185;BME280;18176;49.502;11.754;2023-04-08T03:45:17;97063.78;;;10.43;47.02
21185;BME280;18176;49.502;11.754;2023-04-08T03:49:17;97073.63;;;10.54;47.29
21185;BME280;18176;49.502;11.754;2023-04-08T03:53:20;97060.25;;;10.49;47.25
21185;BME280;18176;49.502;11.754;2023-04-08T03:57:21;97092.69;;;10.75;47.08
21185;BME280;18176;49.502;11.754;2023-04-08T04:01:21;97068.97;;;10.68;47.15
21185;BME280;18176;49.502;11.754;2023-04-08T04:05:22;97077.00;;;10.73;47.33
21185;BME280;18176;49.502;11.754;2023-04-08T04:09:24;97107.75;;;10.63;48.42
21185;BME280;18176;49.502;11.754;2023-04-08T04:13:25;97104.53;;;10.61;49.13
21185;BME280;18176;49.502;11.754;2023-04-08T04:17:25;97104.09;;;10.16;50.48
21185;BME280;18176;49.502;11.754;2023-04-08T04:21:25;97102.75;;;10.07;52.06
21185;BME280;18176;49.502;11.754;2023-04-08T04:25:28;97119.69;;;10.24;52.97
21185;BME280;18176;49.502;11.754;2023-04-08T04:29:30;97124.00;;;10.00;53.63
21185;BME280;18176;49.502;11.754;2023-04-08T04:33:31;97111.34;;;10.02;53.90
21185;BME280;18176;49.502;11.754;2023-04-08T04:37:31;97102.91;;;9.94;54.58
21185;BME280;18176;49.502;11.754;2023-04-08T04:41:34;97122.84;;;9.96;54.86
21185;BME280;18176;49.502;11.754;2023-04-08T04:45:36;97120.75;;;9.62;56.25
21185;BME280;18176;49.502;11.754;2023-04-08T04:49:37;97130.13;;;9.58;57.26
21185;BME280;18176;49.502;11.754;2023-04-08T04:53:38;97131.50;;;9.42;57.69
21185;BME280;18176;49.502;11.754;2023-04-08T04:57:41;97130.03;;;9.71;57.56
21185;BME280;18176;49.502;11.754;2023-04-08T05:01:41;97144.94;;;9.83;57.53
21185;BME280;18176;49.502;11.754;2023-04-08T05:05:41;97116.03;;;9.46;58.31
21185;BME280;18176;49.502;11.754;2023-04-08T05:09:41;97119.81;;;9.32;59.28
21185;BME280;18176;49.502;11.754;2023-04-08T05:13:44;97118.84;;;9.51;58.81
21185;BME280;18176;49.502;11.754;2023-04-08T05:17:44;97135.75;;;9.68;59.32
21185;BME280;18176;49.502;11.754;2023-04-08T05:21:45;97148.72;;;9.76;59.07
21185;BME280;18176;49.502;11.754;2023-04-08T05:25:45;97149.50;;;9.76;59.50
21185;BME280;18176;49.502;11.754;2023-04-08T05:29:48;97145.59;;;9.79;59.50
21185;BME280;18176;49.502;11.754;2023-04-08T05:33:48;97146.81;;;9.83;59.42
21185;BME280;18176;49.502;11.754;2023-04-08T05:37:49;97164.88;;;9.86;60.16
21185;BME280;18176;49.502;11.754;2023-04-08T05:41:50;97161.31;;;9.74;60.45
21185;BME280;18176;49.502;11.754;2023-04-08T05:45:52;97165.38;;;9.95;60.38
21185;BME280;18176;49.502;11.754;2023-04-08T05:49:53;97166.34;;;10.00;60.15
21185;BME280;18176;49.502;11.754;2023-04-08T05:53:53;97169.94;;;10.12;60.15
21185;BME280;18176;49.502;11.754;2023-04-08T05:57:53;97182.72;;;10.33;59.96
21185;BME280;18176;49.502;11.754;2023-04-08T06:01:58;97180.06;;;10.51;59.83
21185;BME280;18176;49.502;11.754;2023-04-08T06:05:59;97164.31;;;10.38;59.60
21185;BME280;18176;49.502;11.754;2023-04-08T06:09:59;97191.38;;;10.58;59.50
21185;BME280;18176;49.502;11.754;2023-04-08T06:14:01;97193.56;;;10.62;59.07
21185;BME280;18176;49.502;11.754;2023-04-08T06:18:04;97186.38;;;10.50;59.26
21185;BME280;18176;49.502;11.754;2023-04-08T06:22:04;97188.88;;;10.64;59.23
21185;BME280;18176;49.502;11.754;2023-04-08T06:26:04;97198.56;;;10.70;59.27
21185;BME280;18176;49.502;11.754;2023-04-08T06:30:07;97182.31;;;10.96;58.73
21185;BME280;18176;49.502;11.754;2023-04-08T06:34:10;97208.41;;;10.81;59.17
21185;BME280;18176;49.502;11.754;2023-04-08T06:38:11;97186.53;;;10.85;58.63
21185;BME280;18176;49.502;11.754;2023-04-08T06:42:11;97213.84;;;10.86;59.67
21185;BME280;18176;49.502;11.754;2023-04-08T06:46:28;97220.03;;;10.98;58.59
21185;BME280;18176;49.502;11.754;2023-04-08T06:50:31;97220.63;;;10.82;58.29
21185;BME280;18176;49.502;11.754;2023-04-08T06:54:32;97218.78;;;10.82;58.61
21185;BME280;18176;49.502;11.754;2023-04-08T06:58:32;97156.22;;;10.51;58.47
21185;BME280;18176;49.502;11.754;2023-04-08T07:02:32;97230.81;;;10.96;58.96
21185;BME280;18176;49.502;11.754;2023-04-08T07:06:36;97218.19;;;10.80;58.71
21185;BME280;18176;49.502;11.754;2023-04-08T07:10:36;97224.75;;;10.78;58.96
21185;BME280;18176;49.502;11.754;2023-04-08T07:14:36;97244.22;;;11.01;58.99
21185;BME280;18176;49.502;11.754;2023-04-08T07:18:37;97230.38;;;11.29;57.48
21185;BME280;18176;49.502;11.754;2023-04-08T07:22:41;97243.75;;;11.34;57.18
21185;BME280;18176;49.502;11.754;2023-04-08T07:26:42;97245.19;;;11.48;57.38
21185;BME280;18176;49.502;11.754;2023-04-08T07:30:42;97231.78;;;11.43;57.61
21185;BME280;18176;49.502;11.754;2023-04-08T07:34:42;97251.78;;;11.57;57.67
21185;BME280;18176;49.502;11.754;2023-04-08T07:38:46;97245.31;;;11.53;56.94
21185;BME280;18176;49.502;11.754;2023-04-08T07:42:46;97255.69;;;11.55;57.32
21185;BME280;18176;49.502;11.754;2023-04-08T07:46:47;97258.97;;;11.68;57.37
21185;BME280;18176;49.502;11.754;2023-04-08T07:50:48;97257.31;;;12.09;56.68
21185;BME280;18176;49.502;11.754;2023-04-08T07:55:10;97253.81;;;11.96;56.54
21185;BME280;18176;49.502;11.754;2023-04-08T07:59:10;97258.91;;;12.10;56.12
21185;BME280;18176;49.502;11.754;2023-04-08T08:03:11;97261.31;;;12.11;55.83
21185;BME280;18176;49.502;11.754;2023-04-08T08:07:11;97264.22;;;12.10;56.19
21185;BME280;18176;49.502;11.754;2023-04-08T08:11:14;97258.44;;;12.13;55.47
21185;BME280;18176;49.502;11.754;2023-04-08T08:15:14;97275.66;;;12.22;55.47
21185;BME280;18176;49.502;11.754;2023-04-08T08:19:14;97273.56;;;12.24;55.55
21185;BME280;18176;49.502;11.754;2023-04-08T08:23:14;97275.88;;;12.32;55.95
21185;BME280;18176;49.502;11.754;2023-04-08T08:27:18;97286.16;;;12.40;55.79
21185;BME280;18176;49.502;11.754;2023-04-08T08:31:18;97247.25;;;12.22;55.87
21185;BME280;18176;49.502;11.754;2023-04-08T08:35:18;97275.41;;;12.23;56.02
21185;BME280;18176;49.502;11.754;2023-04-08T08:39:19;97264.22;;;12.21;56.42
21185;BME280;18176;49.502;11.754;2023-04-08T08:43:22;97278.44;;;12.04;56.58
21185;BME280;18176;49.502;11.754;2023-04-08T08:47:22;97283.88;;;12.09;56.18
21185;BME280;18176;49.502;11.754;2023-04-08T08:51:23;97284.44;;;12.22;56.41
21185;BME280;18176;49.502;11.754;2023-04-08T08:55:24;97297.13;;;12.20;56.21
21185;BME280;18176;49.502;11.754;2023-04-08T08:59:48;97297.38;;;12.30;56.39
21185;BME280;18176;49.502;11.754;2023-04-08T09:04:07;97299.78;;;12.32;56.22
21185;BME280;18176;49.502;11.754;2023-04-08T09:08:25;97305.22;;;12.48;56.17
21185;BME280;18176;49.502;11.754;2023-04-08T09:12:27;97279.88;;;12.57;55.25
21185;BME280;18176;49.502;11.754;2023-04-08T09:16:30;97294.19;;;12.91;54.58
21185;BME280;18176;49.502;11.754;2023-04-08T09:20:30;97304.81;;;12.91;54.36
21185;BME280;18176;49.502;11.754;2023-04-08T09:24:31;97300.63;;;12.95;54.57
21185;BME280;18176;49.502;11.754;2023-04-08T09:28:32;97315.50;;;13.48;53.99
21185;BME280;18176;49.502;11.754;2023-04-08T09:32:47;97314.06;;;13.57;54.08
21185;BME280;18176;49.502;11.754;2023-04-08T09:36:48;97316.88;;;14.12;53.30
21185;BME280;18176;49.502;11.754;2023-04-08T09:40:48;97310.72;;;14.61;52.50
21185;BME280;18176;49.502;11.754;2023-04-08T09:44:49;97301.81;;;14.55;51.34
21185;BME280;18176;49.502;11.754;2023-04-08T09:49:02;97315.25;;;14.60;51.65
21185;BME280;18176;49.502;11.754;2023-04-08T09:53:13;97320.44;;;14.50;51.64
21185;BME280;18176;49.502;11.754;2023-04-08T09:57:24;97322.53;;;14.48;51.23
21185;BME280;18176;49.502;11.754;2023-04-08T10:01:36;97311.38;;;14.51;51.43
21185;BME280;18176;49.502;11.754;2023-04-08T10:05:42;97329.56;;;14.54;51.85
21185;BME280;18176;49.502;11.754;2023-04-08T10:09:44;97298.47;;;14.27;52.52
21185;BME280;18176;49.502;11.754;2023-04-08T10:13:44;97331.13;;;14.50;51.74
21185;BME280;18176;49.502;11.754;2023-04-08T10:17:45;97321.88;;;14.41;51.83
21185;BME280;18176;49.502;11.754;2023-04-08T10:21:48;97312.28;;;14.78;51.84
21185;BME280;18176;49.502;11.754;2023-04-08T10:25:49;97297.00;;;15.39;50.98
21185;BME280;18176;49.502;11.754;2023-04-08T10:29:49;97318.38;;;14.96;50.10
21185;BME280;18176;49.502;11.754;2023-04-08T10:33:50;97318.53;;;14.67;51.61
21185;BME280;18176;49.502;11.754;2023-04-08T10:37:53;97313.16;;;14.29;52.48
21185;BME280;18176;49.502;11.754;2023-04-08T10:41:53;97313.31;;;14.56;52.23
21185;BME280;18176;49.502;11.754;2023-04-08T10:45:53;97312.94;;;14.69;52.05
21185;BME280;18176;49.502;11.754;2023-04-08T10:49:53;97292.50;;;14.20;52.32
21185;BME280;18176;49.502;11.754;2023-04-08T10:54:05;97313.94;;;14.63;52.25
21185;BME280;18176;49.502;11.754;2023-04-08T10:58:07;97311.31;;;14.85;51.51
21185;BME280;18176;49.502;11.754;2023-04-08T11:02:12;97306.22;;;15.48;49.81
21185;BME280;18176;49.502;11.754;2023-04-08T11:06:13;97315.56;;;15.77;49.43
21185;BME280;18176;49.502;11.754;2023-04-08T11:10:16;97311.03;;;16.04;48.96
21185;BME280;18176;49.502;11.754;2023-04-08T11:14:17;97293.50;;;16.24;47.80
21185;BME280;18176;49.502;11.754;2023-04-08T11:18:19;97315.38;;;15.84;48.33
21185;BME280;18176;49.502;11.754;2023-04-08T11:22:20;97319.75;;;15.68;49.02
21185;BME280;18176;49.502;11.754;2023-04-08T11:26:25;97325.16;;;15.47;49.34
21185;BME280;18176;49.502;11.754;2023-04-08T11:30:27;97319.81;;;15.47;49.38
21185;BME280;18176;49.502;11.754;2023-04-08T11:34:28;97311.81;;;15.03;49.15
21185;BME280;18176;49.502;11.754;2023-04-08T11:38:29;97321.81;;;14.91;49.74
21185;BME280;18176;49.502;11.754;2023-04-08T11:42:32;97311.22;;;14.41;50.50
21185;BME280;18176;49.502;11.754;2023-04-08T11:46:33;97309.94;;;14.27;50.50
21185;BME280;18176;49.502;11.754;2023-04-08T11:50:34;97313.63;;;14.26;50.81
21185;BME280;18176;49.502;11.754;2023-04-08T11:54:41;97316.38;;;13.98;51.52
21185;BME280;18176;49.502;11.754;2023-04-08T11:58:44;97320.91;;;13.81;52.04
21185;BME280;18176;49.502;11.754;2023-04-08T12:02:45;97317.59;;;14.07;51.16
21185;BME280;18176;49.502;11.754;2023-04-08T12:06:45;97316.56;;;14.41;50.45
21185;BME280;18176;49.502;11.754;2023-04-08T12:10:46;97317.28;;;14.92;49.10
21185;BME280;18176;49.502;11.754;2023-04-08T12:14:49;97295.25;;;14.80;48.90
21185;BME280;18176;49.502;11.754;2023-04-08T12:18:49;97325.28;;;14.92;49.00
21185;BME280;18176;49.502;11.754;2023-04-08T12:22:49;97336.28;;;15.17;48.67
21185;BME280;18176;49.502;11.754;2023-04-08T12:26:49;97330.56;;;14.87;49.02
21185;BME280;18176;49.502;11.754;2023-04-08T12:30:52;97342.72;;;15.21;48.25
21185;BME280;18176;49.502;11.754;2023-04-08T12:34:52;97342.34;;;15.56;48.26
21185;BME280;18176;49.502;11.754;2023-04-08T12:38:52;97343.66;;;15.53;47.51
21185;BME280;18176;49.502;11.754;2023-04-08T12:42:53;97348.69;;;15.28;47.66
21185;BME280;18176;49.502;11.754;2023-04-08T12:46:55;97335.34;;;14.68;48.52
21185;BME280;18176;49.502;11.754;2023-04-08T12:50:57;97351.94;;;14.53;50.95
21185;BME280;18176;49.502;11.754;2023-04-08T12:54:57;97357.22;;;14.32;52.14
21185;BME280;18176;49.502;11.754;2023-04-08T12:58:58;97347.81;;;13.68;55.17
21185;BME280;18176;49.502;11.754;2023-04-08T13:03:01;97362.59;;;13.19;57.86
21185;BME280;18176;49.502;11.754;2023-04-08T13:07:02;97356.00;;;13.50;58.15
21185;BME280;18176;49.502;11.754;2023-04-08T13:11:04;97325.03;;;13.44;56.25
21185;BME280;18176;49.502;11.754;2023-04-08T13:15:07;97362.59;;;14.20;55.02
21185;BME280;18176;49.502;11.754;2023-04-08T13:19:10;97358.06;;;14.70;55.39
21185;BME280;18176;49.502;11.754;2023-04-08T13:23:11;97342.94;;;15.41;53.89
21185;BME280;18176;49.502;11.754;2023-04-08T13:27:11;97350.97;;;16.21;49.62
21185;BME280;18176;49.502;11.754;2023-04-08T13:31:11;97342.25;;;16.67;48.88
21185;BME280;18176;49.502;11.754;2023-04-08T13:35:14;97345.41;;;16.23;47.75
21185;BME280;18176;49.502;11.754;2023-04-08T13:39:14;97352.56;;;15.64;48.02
21185;BME280;18176;49.502;11.754;2023-04-08T13:43:15;97354.44;;;15.20;48.63
21185;BME280;18176;49.502;11.754;2023-04-08T13:47:15;97353.56;;;14.54;50.85
21185;BME280;18176;49.502;11.754;2023-04-08T13:51:18;97340.78;;;14.06;52.56
21185;BME280;18176;49.502;11.754;2023-04-08T13:55:18;97361.28;;;14.06;53.31
21185;BME280;18176;49.502;11.754;2023-04-08T13:59:18;97362.09;;;14.23;53.11
21185;BME280;18176;49.502;11.754;2023-04-08T14:03:18;97337.31;;;14.06;53.18
21185;BME280;18176;49.502;11.754;2023-04-08T14:07:21;97362.31;;;14.33;52.82
21185;BME280;18176;49.502;11.754;2023-04-08T14:11:21;97353.97;;;14.46;52.83
21185;BME280;18176;49.502;11.754;2023-04-08T14:15:22;97366.16;;;14.42;53.01
21185;BME280;18176;49.502;11.754;2023-04-08T14:19:22;97360.81;;;14.97;52.20
21185;BME280;18176;49.502;11.754;2023-04-08T14:23:25;97358.25;;;15.24;51.60
21185;BME280;18176;49.502;11.754;2023-04-08T14:27:25;97312.72;;;15.57;50.27
21185;BME280;18176;49.502;11.754;2023-04-08T14:31:26;97349.13;;;16.22;48.51
21185;BME280;18176;49.502;11.754;2023-04-08T14:35:26;97351.34;;;16.30;47.09
21185;BME280;18176;49.502;11.754;2023-04-08T14:39:29;97336.97;;;16.41;46.52
21185;BME280;18176;49.502;11.754;2023-04-08T14:43:29;97349.75;;;16.02;46.87
21185;BME280;18176;49.502;11.754;2023-04-08T14:47:30;97362.44;;;16.16;46.74
21185;BME280;18176;49.502;11.754;2023-04-08T14:51:30;97353.38;;;15.64;45.98
21185;BME280;18176;49.502;11.754;2023-04-08T14:55:33;97364.03;;;15.86;45.84
21185;BME280;18176;49.502;11.754;2023-04-08T14:59:34;97360.44;;;15.75;45.94
21185;BME280;18176;49.502;11.754;2023-04-08T15:03:35;97356.41;;;15.46;46.29
21185;BME280;18176;49.502;11.754;2023-04-08T15:07:36;97376.72;;;15.47;46.33
21185;BME280;18176;49.502;11.754;2023-04-08T15:11:38;97374.94;;;15.36;47.50
21185;BME280;18176;49.502;11.754;2023-04-08T15:15:39;97377.75;;;15.46;46.47
21185;BME280;18176;49.502;11.754;2023-04-08T15:19:39;97385.78;;;15.46;46.43
21185;BME280;18176;49.502;11.754;2023-04-08T15:23:39;97377.34;;;15.16;46.57
21185;BME280;18176;49.502;11.754;2023-04-08T15:27:42;97372.16;;;14.88;47.21
21185;BME280;18176;49.502;11.754;2023-04-08T15:31:43;97391.03;;;14.81;48.40
21185;BME280;18176;49.502;11.754;2023-04-08T15:35:45;97369.19;;;14.84;47.88
21185;BME280;18176;49.502;11.754;2023-04-08T15:39:46;97374.91;;;14.38;48.66
21185;BME280;18176;49.502;11.754;2023-04-08T15:43:49;97381.69;;;14.45;48.28
21185;BME280;18176;49.502;11.754;2023-04-08T15:47:51;97398.56;;;15.06;47.47
21185;BME280;18176;49.502;11.754;2023-04-08T15:51:52;97389.66;;;15.17;47.49
21185;BME280;18176;49.502;11.754;2023-04-08T15:55:52;97382.91;;;14.93;47.18
21185;BME280;18176;49.502;11.754;2023-04-08T15:59:55;97410.59;;;14.87;46.91
21185;BME280;18176;49.502;11.754;2023-04-08T16:03:55;97416.88;;;14.81;47.31
21185;BME280;18176;49.502;11.754;2023-04-08T16:07:57;97425.88;;;15.13;46.44
21185;BME280;18176;49.502;11.754;2023-04-08T16:11:57;97432.38;;;15.17;45.85
21185;BME280;18176;49.502;11.754;2023-04-08T16:16:01;97405.44;;;14.80;46.48
21185;BME280;18176;49.502;11.754;2023-04-08T16:20:02;97430.19;;;14.75;45.90
21185;BME280;18176;49.502;11.754;2023-04-08T16:24:03;97425.72;;;14.64;46.22
21185;BME280;18176;49.502;11.754;2023-04-08T16:28:03;97441.94;;;14.46;47.56
21185;BME280;18176;49.502;11.754;2023-04-08T16:32:06;97451.50;;;14.42;48.04
21185;BME280;18176;49.502;11.754;2023-04-08T16:36:06;97455.69;;;14.38;48.40
21185;BME280;18176;49.502;11.754;2023-04-08T16:40:08;97447.59;;;14.33;48.97
21185;BME280;18176;49.502;11.754;2023-04-08T16:44:09;97455.13;;;14.36;48.68
21185;BME280;18176;49.502;11.754;2023-04-08T16:48:12;97454.16;;;14.14;48.75
21185;BME280;18176;49.502;11.754;2023-04-08T16:52:13;97462.81;;;14.21;50.58
21185;BME280;18176;49.502;11.754;2023-04-08T16:56:13;97469.34;;;14.14;50.86
21185;BME280;18176;49.502;11.754;2023-04-08T17:00:15;97470.75;;;14.04;50.44
21185;BME280;18176;49.502;11.754;2023-04-08T17:04:19;97479.53;;;14.17;49.84
21185;BME280;18176;49.502;11.754;2023-04-08T17:08:20;97478.72;;;14.16;49.97
21185;BME280;18176;49.502;11.754;2023-04-08T17:12:20;97485.44;;;13.90;51.06
21185;BME280;18176;49.502;11.754;2023-04-08T17:16:20;97488.81;;;13.86;51.26
21185;BME280;18176;49.502;11.754;2023-04-08T17:20:24;97492.06;;;13.88;51.04
21185;BME280;18176;49.502;11.754;2023-04-08T17:24:25;97494.31;;;13.96;50.98
21185;BME280;18176;49.502;11.754;2023-04-08T17:28:25;97499.41;;;13.97;50.98
21185;BME280;18176;49.502;11.754;2023-04-08T17:32:25;97505.44;;;13.93;50.96
21185;BME280;18176;49.502;11.754;2023-04-08T17:36:29;97480.97;;;13.68;51.28
21185;BME280;18176;49.502;11.754;2023-04-08T17:40:30;97505.53;;;13.70;51.87
21185;BME280;18176;49.502;11.754;2023-04-08T17:44:30;97499.28;;;13.64;52.11
21185;BME280;18176;49.502;11.754;2023-04-08T17:48:30;97512.47;;;13.71;52.55
21185;BME280;18176;49.502;11.754;2023-04-08T17:52:33;97515.38;;;13.69;52.64
21185;BME280;18176;49.502;11.754;2023-04-08T17:56:33;97516.44;;;13.57;53.37
21185;BME280;18176;49.502;11.754;2023-04-08T18:00:34;97509.84;;;13.36;53.00
21185;BME280;18176;49.502;11.754;2023-04-08T18:04:34;97516.94;;;13.30;53.38
21185;BME280;18176;49.502;11.754;2023-04-08T18:08:37;97536.84;;;13.40;53.64
21185;BME280;18176;49.502;11.754;2023-04-08T18:12:37;97529.31;;;13.25;53.77
21185;BME280;18176;49.502;11.754;2023-04-08T18:16:38;97518.91;;;13.12;54.05
21185;BME280;18176;49.502;11.754;2023-04-08T18:20:38;97554.97;;;13.19;54.10
21185;BME280;18176;49.502;11.754;2023-04-08T18:24:41;97556.28;;;13.05;54.38
21185;BME280;18176;49.502;11.754;2023-04-08T18:28:42;97559.94;;;13.04;54.65
21185;BME280;18176;49.502;11.754;2023-04-08T18:32:45;97542.81;;;13.00;54.42
21185;BME280;18176;49.502;11.754;2023-04-08T18:36:46;97553.44;;;13.00;54.56
21185;BME280;18176;49.502;11.754;2023-04-08T18:40:49;97571.19;;;13.18;54.29
21185;BME280;18176;49.502;11.754;2023-04-08T18:44:50;97575.81;;;13.22;54.41
21185;BME280;18176;49.502;11.754;2023-04-08T18:48:53;97589.00;;;13.17;54.76
21185;BME280;18176;49.502;11.754;2023-04-08T18:52:54;97597.78;;;13.18;54.32
21185;BME280;18176;49.502;11.754;2023-04-08T18:56:57;97592.22;;;13.19;54.20
21185;BME280;18176;49.502;11.754;2023-04-08T19:00:59;97595.97;;;13.18;54.31
21185;BME280;18176;49.502;11.754;2023-04-08T19:05:02;97603.94;;;13.18;54.18
21185;BME280;18176;49.502;11.754;2023-04-08T19:09:05;97592.84;;;13.21;53.85
21185;BME280;18176;49.502;11.754;2023-04-08T19:13:08;97610.66;;;13.32;53.88
21185;BME280;18176;49.502;11.754;2023-04-08T19:17:09;97606.03;;;13.16;54.29
21185;BME280;18176;49.502;11.754;2023-04-08T19:21:09;97594.09;;;13.07;54.49
21185;BME280;18176;49.502;11.754;2023-04-08T19:25:09;97614.91;;;13.10;54.98
21185;BME280;18176;49.502;11.754;2023-04-08T19:29:12;97614.91;;;13.10;55.06
21185;BME280;18176;49.502;11.754;2023-04-08T19:33:12;97622.81;;;12.99;54.96
21185;BME280;18176;49.502;11.754;2023-04-08T19:37:13;97624.56;;;12.93;55.40
21185;BME280;18176;49.502;11.754;2023-04-08T19:41:13;97629.31;;;12.91;55.24
21185;BME280;18176;49.502;11.754;2023-04-08T19:45:16;97624.44;;;12.88;55.35
21185;BME280;18176;49.502;11.754;2023-04-08T19:49:16;97630.19;;;12.85;55.23
21185;BME280;18176;49.502;11.754;2023-04-08T19:53:17;97619.47;;;12.62;55.87
21185;BME280;18176;49.502;11.754;2023-04-08T19:57:18;97628.13;;;12.87;55.35
21185;BME280;18176;49.502;11.754;2023-04-08T20:01:21;97632.44;;;13.00;55.21
21185;BME280;18176;49.502;11.754;2023-04-08T20:05:22;97632.66;;;12.87;55.52
21185;BME280;18176;49.502;11.754;2023-04-08T20:09:23;97638.31;;;12.90;55.41
21185;BME280;18176;49.502;11.754;2023-04-08T20:13:23;97638.66;;;12.82;55.46
21185;BME280;18176;49.502;11.754;2023-04-08T20:17:26;97636.88;;;12.76;55.66
21185;BME280;18176;49.502;11.754;2023-04-08T20:21:27;97603.91;;;12.65;55.15
21185;BME280;18176;49.502;11.754;2023-04-08T20:25:27;97616.28;;;12.72;55.46
21185;BME280;18176;49.502;11.754;2023-04-08T20:29:28;97644.78;;;12.94;55.65
21185;BME280;18176;49.502;11.754;2023-04-08T20:33:32;97632.44;;;13.00;55.78
21185;BME280;18176;49.502;11.754;2023-04-08T20:37:33;97635.41;;;12.92;56.20
21185;BME280;18176;49.502;11.754;2023-04-08T20:41:34;97622.03;;;12.57;56.83
21185;BME280;18176;49.502;11.754;2023-04-08T20:45:36;97644.72;;;12.71;57.11
21185;BME280;18176;49.502;11.754;2023-04-08T20:49:39;97651.75;;;12.65;57.22
21185;BME280;18176;49.502;11.754;2023-04-08T20:53:39;97635.09;;;12.58;57.53
21185;BME280;18176;49.502;11.754;2023-04-08T20:57:40;97650.66;;;12.55;58.40
21185;BME280;18176;49.502;11.754;2023-04-08T21:01:41;97655.97;;;12.55;59.01
21185;BME280;18176;49.502;11.754;2023-04-08T21:05:45;97648.31;;;12.47;58.42